sensor_id;sensor_type;location;lat;lon;timestamp;temperature;humidity
46898;DHT22;32646;50.958;6.258;2023-02-03T00:00:52;8.50;99.90
46898;DHT22;32646;50.958;6.258;2023-02-03T00:03:18;8.50;99.90
46898;DHT22;32646;50.958;6.258;2023-02-03T00:05:45;8.50;99.90
46898;DHT22;32646;50.958;6.258;2023-02-03T00:08:13;8.60;99.90
46898;DHT22;32646;50.958;6.258;2023-02-03T00:10:40;8.50;99.90
46898;DHT22;32646;50.958;6.258;2023-02-03T00:13:07;8.50;99.90
46898;DHT22;32646;50.958;6.258;2023-02-03T00:15:34;8.50;99.90
46898;DHT22;32646;50.958;6.258;2023-02-03T00:18:01;8.50;99.90
46898;DHT22;32646;50.958;6.258;2023-02-03T00:20:27;8.50;99.90
46898;DHT22;32646;50.958;6.258;2023-02-03T00:23:01;8.50;99.90
46898;DHT22;32646;50.958;6.258;2023-02-03T00:25:28;8.60;99.90
46898;DHT22;32646;50.958;6.258;2023-02-03T00:27:54;8.50;99.90
46898;DHT22;32646;50.958;6.258;2023-02-03T00:30:21;8.50;99.90
46898;DHT22;32646;50.958;6.258;2023-02-03T00:32:47;8.50;99.90
46898;DHT22;32646;50.958;6.258;2023-02-03T00:35:14;8.50;99.90
46898;DHT22;32646;50.958;6.258;2023-02-03T00:37:40;8.50;99.90
46898;DHT22;32646;50.958;6.258;2023-02-03T00:40:07;8.50;99.90
46898;DHT22;32646;50.958;6.258;2023-02-03T00:42:34;8.50;99.90
46898;DHT22;32646;50.958;6.258;2023-02-03T00:45:01;8.40;99.90
46898;DHT22;32646;50.958;6.258;2023-02-03T00:47:28;8.40;99.90
46898;DHT22;32646;50.958;6.258;2023-02-03T00:49:55;8.50;99.90
46898;DHT22;32646;50.958;6.258;2023-02-03T00:52:21;8.50;99.90
46898;DHT22;32646;50.958;6.258;2023-02-03T00:54:48;8.50;99.90
46898;DHT22;32646;50.958;6.258;2023-02-03T00:57:14;8.50;99.90
46898;DHT22;32646;50.958;6.258;2023-02-03T00:59:41;8.50;99.90
46898;DHT22;32646;50.958;6.258;2023-02-03T01:02:07;8.50;99.90
46898;DHT22;32646;50.958;6.258;2023-02-03T01:04:34;8.50;99.90
46898;DHT22;32646;50.958;6.258;2023-02-03T01:07:00;8.50;99.90
46898;DHT22;32646;50.958;6.258;2023-02-03T01:09:27;8.50;99.90
46898;DHT22;32646;50.958;6.258;2023-02-03T01:11:54;8.50;99.90
46898;DHT22;32646;50.958;6.258;2023-02-03T01:14:20;8.50;99.90
46898;DHT22;32646;50.958;6.258;2023-02-03T01:16:47;8.50;99.90
46898;DHT22;32646;50.958;6.258;2023-02-03T01:19:13;8.50;99.90
46898;DHT22;32646;50.958;6.258;2023-02-03T01:21:40;8.50;99.90
46898;DHT22;32646;50.958;6.258;2023-02-03T01:24:06;8.60;99.90
46898;DHT22;32646;50.958;6.258;2023-02-03T01:26:33;8.50;99.90
46898;DHT22;32646;50.958;6.258;2023-02-03T01:28:59;8.50;99.90
46898;DHT22;32646;50.958;6.258;2023-02-03T01:31:29;8.50;99.90
46898;DHT22;32646;50.958;6.258;2023-02-03T01:33:56;8.50;99.90
46898;DHT22;32646;50.958;6.258;2023-02-03T01:36:25;8.50;99.90
46898;DHT22;32646;50.958;6.258;2023-02-03T01:38:53;8.50;99.90
46898;DHT22;32646;50.958;6.258;2023-02-03T01:41:23;8.50;99.90
46898;DHT22;32646;50.958;6.258;2023-02-03T01:43:53;8.50;99.90
46898;DHT22;32646;50.958;6.258;2023-02-03T01:49:11;8.50;99.90
46898;DHT22;32646;50.958;6.258;2023-02-03T01:51:40;8.50;99.90
46898;DHT22;32646;50.958;6.258;2023-02-03T01:54:14;8.50;99.90
46898;DHT22;32646;50.958;6.258;2023-02-03T01:56:44;8.50;99.90
46898;DHT22;32646;50.958;6.258;2023-02-03T01:59:15;8.50;99.90
46898;DHT22;32646;50.958;6.258;2023-02-03T02:01:43;8.50;99.90
46898;DHT22;32646;50.958;6.258;2023-02-03T02:04:11;8.50;99.90
46898;DHT22;32646;50.958;6.258;2023-02-03T02:06:37;8.50;99.90
46898;DHT22;32646;50.958;6.258;2023-02-03T02:09:04;8.50;99.90
46898;DHT22;32646;50.958;6.258;2023-02-03T02:11:31;8.50;99.90
46898;DHT22;32646;50.958;6.258;2023-02-03T02:14:01;8.40;99.90
46898;DHT22;32646;50.958;6.258;2023-02-03T02:17:42;8.40;99.90
46898;DHT22;32646;50.958;6.258;2023-02-03T02:41:07;8.50;99.90
46898;DHT22;32646;50.958;6.258;2023-02-03T02:46:30;8.50;99.90
46898;DHT22;32646;50.958;6.258;2023-02-03T02:49:02;8.50;99.90
46898;DHT22;32646;50.958;6.258;2023-02-03T02:51:32;8.50;99.90
46898;DHT22;32646;50.958;6.258;2023-02-03T02:54:02;8.60;99.90
46898;DHT22;32646;50.958;6.258;2023-02-03T02:56:31;8.60;99.90
46898;DHT22;32646;50.958;6.258;2023-02-03T02:59:01;8.60;99.90
46898;DHT22;32646;50.958;6.258;2023-02-03T03:01:29;8.50;99.90
46898;DHT22;32646;50.958;6.258;2023-02-03T03:03:56;8.60;99.90
46898;DHT22;32646;50.958;6.258;2023-02-03T03:06:34;8.50;99.90
46898;DHT22;32646;50.958;6.258;2023-02-03T03:09:11;8.50;99.90
46898;DHT22;32646;50.958;6.258;2023-02-03T03:11:50;8.50;99.90
46898;DHT22;32646;50.958;6.258;2023-02-03T03:14:18;8.50;99.90
46898;DHT22;32646;50.958;6.258;2023-02-03T03:16:53;8.50;99.90
46898;DHT22;32646;50.958;6.258;2023-02-03T03:19:24;8.50;99.90
46898;DHT22;32646;50.958;6.258;2023-02-03T03:21:56;8.60;99.90
46898;DHT22;32646;50.958;6.258;2023-02-03T03:24:27;8.50;99.90
46898;DHT22;32646;50.958;6.258;2023-02-03T03:27:01;8.60;99.90
46898;DHT22;32646;50.958;6.258;2023-02-03T03:32:18;8.60;99.90
46898;DHT22;32646;50.958;6.258;2023-02-03T03:34:44;8.60;99.90
46898;DHT22;32646;50.958;6.258;2023-02-03T03:37:21;8.60;99.90
46898;DHT22;32646;50.958;6.258;2023-02-03T03:39:56;8.60;99.90
46898;DHT22;32646;50.958;6.258;2023-02-03T03:43:04;8.60;99.90
46898;DHT22;32646;50.958;6.258;2023-02-03T03:45:31;8.60;99.90
46898;DHT22;32646;50.958;6.258;2023-02-03T03:48:20;8.60;99.90
46898;DHT22;32646;50.958;6.258;2023-02-03T03:51:01;8.60;99.90
46898;DHT22;32646;50.958;6.258;2023-02-03T03:53:31;8.60;99.90
46898;DHT22;32646;50.958;6.258;2023-02-03T03:56:00;8.60;99.90
46898;DHT22;32646;50.958;6.258;2023-02-03T03:58:30;8.60;99.90
46898;DHT22;32646;50.958;6.258;2023-02-03T04:01:00;8.50;99.90
46898;DHT22;32646;50.958;6.258;2023-02-03T04:03:32;8.60;99.90
46898;DHT22;32646;50.958;6.258;2023-02-03T04:06:00;8.50;99.90
46898;DHT22;32646;50.958;6.258;2023-02-03T04:08:27;8.50;99.90
46898;DHT22;32646;50.958;6.258;2023-02-03T04:10:54;8.50;99.90
46898;DHT22;32646;50.958;6.258;2023-02-03T04:13:20;8.50;99.90
46898;DHT22;32646;50.958;6.258;2023-02-03T04:15:47;8.50;99.90
46898;DHT22;32646;50.958;6.258;2023-02-03T04:18:14;8.50;99.90
46898;DHT22;32646;50.958;6.258;2023-02-03T04:20:41;8.50;99.90
46898;DHT22;32646;50.958;6.258;2023-02-03T04:23:09;8.60;99.90
46898;DHT22;32646;50.958;6.258;2023-02-03T04:25:36;8.60;99.90
46898;DHT22;32646;50.958;6.258;2023-02-03T04:28:02;8.60;99.90
46898;DHT22;32646;50.958;6.258;2023-02-03T04:30:29;8.50;99.90
46898;DHT22;32646;50.958;6.258;2023-02-03T04:32:56;8.50;99.90
46898;DHT22;32646;50.958;6.258;2023-02-03T04:35:22;8.50;99.90
46898;DHT22;32646;50.958;6.258;2023-02-03T04:37:49;8.50;99.90
46898;DHT22;32646;50.958;6.258;2023-02-03T04:40:16;8.60;99.90
46898;DHT22;32646;50.958;6.258;2023-02-03T04:42:43;8.60;99.90
46898;DHT22;32646;50.958;6.258;2023-02-03T04:45:11;8.60;99.90
46898;DHT22;32646;50.958;6.258;2023-02-03T04:47:38;8.50;99.90
46898;DHT22;32646;50.958;6.258;2023-02-03T04:50:05;8.50;99.90
46898;DHT22;32646;50.958;6.258;2023-02-03T04:52:32;8.50;99.90
46898;DHT22;32646;50.958;6.258;2023-02-03T04:54:58;8.60;99.90
46898;DHT22;32646;50.958;6.258;2023-02-03T04:57:25;8.50;99.90
46898;DHT22;32646;50.958;6.258;2023-02-03T04:59:51;8.60;99.90
46898;DHT22;32646;50.958;6.258;2023-02-03T05:02:18;8.60;99.90
46898;DHT22;32646;50.958;6.258;2023-02-03T05:04:44;8.60;99.90
46898;DHT22;32646;50.958;6.258;2023-02-03T05:07:11;8.50;99.90
46898;DHT22;32646;50.958;6.258;2023-02-03T05:09:37;8.50;99.90
46898;DHT22;32646;50.958;6.258;2023-02-03T05:12:04;8.50;99.90
46898;DHT22;32646;50.958;6.258;2023-02-03T05:14:31;8.50;99.90
46898;DHT22;32646;50.958;6.258;2023-02-03T05:16:57;8.40;99.90
46898;DHT22;32646;50.958;6.258;2023-02-03T05:19:24;8.50;99.90
46898;DHT22;32646;50.958;6.258;2023-02-03T05:21:50;8.50;99.90
46898;DHT22;32646;50.958;6.258;2023-02-03T05:24:17;8.50;99.90
46898;DHT22;32646;50.958;6.258;2023-02-03T05:26:44;8.50;99.90
46898;DHT22;32646;50.958;6.258;2023-02-03T05:29:10;8.50;99.90
46898;DHT22;32646;50.958;6.258;2023-02-03T05:31:37;8.50;99.90
46898;DHT22;32646;50.958;6.258;2023-02-03T05:34:03;8.50;99.90
46898;DHT22;32646;50.958;6.258;2023-02-03T05:36:30;8.50;99.90
46898;DHT22;32646;50.958;6.258;2023-02-03T05:38:57;8.60;99.90
46898;DHT22;32646;50.958;6.258;2023-02-03T05:41:23;8.50;99.90
46898;DHT22;32646;50.958;6.258;2023-02-03T05:43:51;8.50;99.90
46898;DHT22;32646;50.958;6.258;2023-02-03T05:46:18;8.60;99.90
46898;DHT22;32646;50.958;6.258;2023-02-03T05:48:44;8.60;99.90
46898;DHT22;32646;50.958;6.258;2023-02-03T05:51:12;8.50;99.90
46898;DHT22;32646;50.958;6.258;2023-02-03T05:53:38;8.60;99.90
46898;DHT22;32646;50.958;6.258;2023-02-03T05:56:05;8.60;99.90
46898;DHT22;32646;50.958;6.258;2023-02-03T05:58:32;8.50;99.90
46898;DHT22;32646;50.958;6.258;2023-02-03T06:00:58;8.50;99.90
46898;DHT22;32646;50.958;6.258;2023-02-03T06:03:25;8.50;99.90
46898;DHT22;32646;50.958;6.258;2023-02-03T06:05:51;8.50;99.90
46898;DHT22;32646;50.958;6.258;2023-02-03T06:08:18;8.50;99.90
46898;DHT22;32646;50.958;6.258;2023-02-03T06:10:45;8.50;99.90
46898;DHT22;32646;50.958;6.258;2023-02-03T06:13:14;8.60;99.90
46898;DHT22;32646;50.958;6.258;2023-02-03T06:15:41;8.60;99.90
46898;DHT22;32646;50.958;6.258;2023-02-03T06:18:08;8.50;99.90
46898;DHT22;32646;50.958;6.258;2023-02-03T06:20:35;8.50;99.90
46898;DHT22;32646;50.958;6.258;2023-02-03T06:23:01;8.60;99.90
46898;DHT22;32646;50.958;6.258;2023-02-03T06:25:28;8.50;99.90
46898;DHT22;32646;50.958;6.258;2023-02-03T06:27:54;8.60;99.90
46898;DHT22;32646;50.958;6.258;2023-02-03T06:30:21;8.50;99.90
46898;DHT22;32646;50.958;6.258;2023-02-03T06:32:48;8.50;99.90
46898;DHT22;32646;50.958;6.258;2023-02-03T06:35:14;8.50;99.90
46898;DHT22;32646;50.958;6.258;2023-02-03T06:37:41;8.60;99.90
46898;DHT22;32646;50.958;6.258;2023-02-03T06:40:09;8.50;99.90
46898;DHT22;32646;50.958;6.258;2023-02-03T06:42:36;8.50;99.90
46898;DHT22;32646;50.958;6.258;2023-02-03T06:45:03;8.50;99.90
46898;DHT22;32646;50.958;6.258;2023-02-03T06:47:30;8.50;99.90
46898;DHT22;32646;50.958;6.258;2023-02-03T06:49:56;8.50;99.90
46898;DHT22;32646;50.958;6.258;2023-02-03T06:52:23;8.50;99.90
46898;DHT22;32646;50.958;6.258;2023-02-03T06:54:49;8.50;99.90
46898;DHT22;32646;50.958;6.258;2023-02-03T06:57:16;8.60;99.90
46898;DHT22;32646;50.958;6.258;2023-02-03T06:59:42;8.50;99.90
46898;DHT22;32646;50.958;6.258;2023-02-03T07:02:10;8.60;99.90
46898;DHT22;32646;50.958;6.258;2023-02-03T07:04:36;8.60;99.90
46898;DHT22;32646;50.958;6.258;2023-02-03T07:07:03;8.60;99.90
46898;DHT22;32646;50.958;6.258;2023-02-03T07:09:30;8.60;99.90
46898;DHT22;32646;50.958;6.258;2023-02-03T07:11:56;8.70;99.90
46898;DHT22;32646;50.958;6.258;2023-02-03T07:14:23;8.70;99.90
46898;DHT22;32646;50.958;6.258;2023-02-03T07:16:49;8.70;99.90
46898;DHT22;32646;50.958;6.258;2023-02-03T07:19:16;8.60;99.90
46898;DHT22;32646;50.958;6.258;2023-02-03T07:21:42;8.60;99.90
46898;DHT22;32646;50.958;6.258;2023-02-03T07:24:09;8.60;99.90
46898;DHT22;32646;50.958;6.258;2023-02-03T07:26:36;8.60;99.90
46898;DHT22;32646;50.958;6.258;2023-02-03T07:29:02;8.60;99.90
46898;DHT22;32646;50.958;6.258;2023-02-03T07:31:29;8.60;99.90
46898;DHT22;32646;50.958;6.258;2023-02-03T07:33:56;8.70;99.90
46898;DHT22;32646;50.958;6.258;2023-02-03T07:36:22;8.70;99.90
46898;DHT22;32646;50.958;6.258;2023-02-03T07:38:49;8.70;99.90
46898;DHT22;32646;50.958;6.258;2023-02-03T07:41:16;8.70;99.90
46898;DHT22;32646;50.958;6.258;2023-02-03T07:43:43;8.80;99.90
46898;DHT22;32646;50.958;6.258;2023-02-03T07:46:10;8.80;99.90
46898;DHT22;32646;50.958;6.258;2023-02-03T07:48:37;8.70;99.90
46898;DHT22;32646;50.958;6.258;2023-02-03T07:51:04;8.70;99.90
46898;DHT22;32646;50.958;6.258;2023-02-03T07:53:30;8.70;99.90
46898;DHT22;32646;50.958;6.258;2023-02-03T07:56:01;8.70;99.90
46898;DHT22;32646;50.958;6.258;2023-02-03T07:58:28;8.70;99.90
46898;DHT22;32646;50.958;6.258;2023-02-03T08:00:55;8.70;99.90
46898;DHT22;32646;50.958;6.258;2023-02-03T08:03:22;8.70;99.90
46898;DHT22;32646;50.958;6.258;2023-02-03T08:05:48;8.70;99.90
46898;DHT22;32646;50.958;6.258;2023-02-03T08:08:15;8.70;99.90
46898;DHT22;32646;50.958;6.258;2023-02-03T08:10:42;8.70;99.90
46898;DHT22;32646;50.958;6.258;2023-02-03T08:13:08;8.70;99.90
46898;DHT22;32646;50.958;6.258;2023-02-03T08:15:35;8.80;99.90
46898;DHT22;32646;50.958;6.258;2023-02-03T08:18:02;8.80;99.90
46898;DHT22;32646;50.958;6.258;2023-02-03T08:20:28;8.80;99.90
46898;DHT22;32646;50.958;6.258;2023-02-03T08:22:55;8.80;99.90
46898;DHT22;32646;50.958;6.258;2023-02-03T08:25:22;8.80;99.90
46898;DHT22;32646;50.958;6.258;2023-02-03T08:27:48;8.80;99.90
46898;DHT22;32646;50.958;6.258;2023-02-03T08:30:15;8.90;99.90
46898;DHT22;32646;50.958;6.258;2023-02-03T08:32:42;8.90;99.90
46898;DHT22;32646;50.958;6.258;2023-02-03T08:35:08;9.00;99.90
46898;DHT22;32646;50.958;6.258;2023-02-03T08:37:35;8.90;99.90
46898;DHT22;32646;50.958;6.258;2023-02-03T08:40:01;8.90;99.90
46898;DHT22;32646;50.958;6.258;2023-02-03T08:42:28;8.80;99.90
46898;DHT22;32646;50.958;6.258;2023-02-03T08:44:55;8.90;99.90
46898;DHT22;32646;50.958;6.258;2023-02-03T08:47:22;8.90;99.90
46898;DHT22;32646;50.958;6.258;2023-02-03T08:49:48;8.90;99.90
46898;DHT22;32646;50.958;6.258;2023-02-03T08:52:15;8.90;99.90
46898;DHT22;32646;50.958;6.258;2023-02-03T08:54:45;8.90;99.90
46898;DHT22;32646;50.958;6.258;2023-02-03T08:57:12;8.90;99.90
46898;DHT22;32646;50.958;6.258;2023-02-03T08:59:41;8.90;99.90
46898;DHT22;32646;50.958;6.258;2023-02-03T09:02:13;8.90;99.90
46898;DHT22;32646;50.958;6.258;2023-02-03T09:04:41;8.90;99.90
46898;DHT22;32646;50.958;6.258;2023-02-03T09:07:08;8.90;99.90
46898;DHT22;32646;50.958;6.258;2023-02-03T09:09:35;9.00;99.90
46898;DHT22;32646;50.958;6.258;2023-02-03T09:12:04;9.00;99.90
46898;DHT22;32646;50.958;6.258;2023-02-03T09:14:31;8.90;99.90
46898;DHT22;32646;50.958;6.258;2023-02-03T09:16:59;8.90;99.90
46898;DHT22;32646;50.958;6.258;2023-02-03T09:19:26;8.80;99.90
46898;DHT22;32646;50.958;6.258;2023-02-03T09:21:53;8.80;99.90
46898;DHT22;32646;50.958;6.258;2023-02-03T09:24:20;8.80;99.90
46898;DHT22;32646;50.958;6.258;2023-02-03T09:26:46;8.80;99.90
46898;DHT22;32646;50.958;6.258;2023-02-03T09:29:13;8.80;99.90
46898;DHT22;32646;50.958;6.258;2023-02-03T09:31:39;8.80;99.90
46898;DHT22;32646;50.958;6.258;2023-02-03T09:34:06;8.80;99.90
46898;DHT22;32646;50.958;6.258;2023-02-03T09:36:33;8.90;99.90
46898;DHT22;32646;50.958;6.258;2023-02-03T09:39:00;8.90;99.90
46898;DHT22;32646;50.958;6.258;2023-02-03T09:44:58;8.80;99.90
46898;DHT22;32646;50.958;6.258;2023-02-03T09:47:31;8.80;99.90
46898;DHT22;32646;50.958;6.258;2023-02-03T09:50:21;8.80;99.90
46898;DHT22;32646;50.958;6.258;2023-02-03T09:52:49;8.80;99.90
46898;DHT22;32646;50.958;6.258;2023-02-03T09:55:41;8.80;99.90
46898;DHT22;32646;50.958;6.258;2023-02-03T09:58:16;8.70;99.90
46898;DHT22;32646;50.958;6.258;2023-02-03T10:00:50;8.60;99.90
46898;DHT22;32646;50.958;6.258;2023-02-03T10:03:37;8.60;99.90
46898;DHT22;32646;50.958;6.258;2023-02-03T10:18:10;8.20;99.90
46898;DHT22;32646;50.958;6.258;2023-02-03T10:20:50;8.20;99.90
46898;DHT22;32646;50.958;6.258;2023-02-03T10:23:28;8.20;99.90
46898;DHT22;32646;50.958;6.258;2023-02-03T10:25:56;8.10;99.90
46898;DHT22;32646;50.958;6.258;2023-02-03T10:28:36;8.10;99.90
46898;DHT22;32646;50.958;6.258;2023-02-03T10:31:16;8.10;99.90
46898;DHT22;32646;50.958;6.258;2023-02-03T10:33:44;8.10;99.90
46898;DHT22;32646;50.958;6.258;2023-02-03T10:36:21;8.10;99.90
46898;DHT22;32646;50.958;6.258;2023-02-03T10:39:06;8.10;99.90
46898;DHT22;32646;50.958;6.258;2023-02-03T10:41:37;8.00;99.90
46898;DHT22;32646;50.958;6.258;2023-02-03T10:44:05;8.10;99.90
46898;DHT22;32646;50.958;6.258;2023-02-03T10:46:34;8.10;99.90
46898;DHT22;32646;50.958;6.258;2023-02-03T10:49:01;8.10;99.90
46898;DHT22;32646;50.958;6.258;2023-02-03T10:51:36;8.10;99.90
46898;DHT22;32646;50.958;6.258;2023-02-03T10:54:04;8.10;99.90
46898;DHT22;32646;50.958;6.258;2023-02-03T10:56:35;8.10;99.90
46898;DHT22;32646;50.958;6.258;2023-02-03T10:59:03;8.10;99.90
46898;DHT22;32646;50.958;6.258;2023-02-03T11:01:46;8.10;99.90
46898;DHT22;32646;50.958;6.258;2023-02-03T11:04:30;8.10;99.90
46898;DHT22;32646;50.958;6.258;2023-02-03T11:07:03;8.20;99.90
46898;DHT22;32646;50.958;6.258;2023-02-03T11:09:39;8.20;99.90
46898;DHT22;32646;50.958;6.258;2023-02-03T11:14:50;8.20;99.90
46898;DHT22;32646;50.958;6.258;2023-02-03T11:17:22;8.30;99.90
46898;DHT22;32646;50.958;6.258;2023-02-03T11:19:51;8.40;99.90
46898;DHT22;32646;50.958;6.258;2023-02-03T11:22:31;8.50;99.90
46898;DHT22;32646;50.958;6.258;2023-02-03T11:25:02;8.60;99.90
46898;DHT22;32646;50.958;6.258;2023-02-03T11:27:31;8.50;99.90
46898;DHT22;32646;50.958;6.258;2023-02-03T11:30:24;8.50;99.90
46898;DHT22;32646;50.958;6.258;2023-02-03T11:32:52;8.60;99.90
46898;DHT22;32646;50.958;6.258;2023-02-03T11:35:27;8.60;99.90
46898;DHT22;32646;50.958;6.258;2023-02-03T11:37:56;8.70;99.90
46898;DHT22;32646;50.958;6.258;2023-02-03T11:40:26;8.70;99.90
46898;DHT22;32646;50.958;6.258;2023-02-03T11:45:39;8.70;99.90
46898;DHT22;32646;50.958;6.258;2023-02-03T11:50:57;8.80;99.90
46898;DHT22;32646;50.958;6.258;2023-02-03T11:53:30;8.80;99.90
46898;DHT22;32646;50.958;6.258;2023-02-03T11:56:31;8.80;99.90
46898;DHT22;32646;50.958;6.258;2023-02-03T12:04:57;8.90;99.90
46898;DHT22;32646;50.958;6.258;2023-02-03T12:13:29;8.90;99.90
46898;DHT22;32646;50.958;6.258;2023-02-03T12:29:23;8.90;99.90
46898;DHT22;32646;50.958;6.258;2023-02-03T12:32:04;8.90;99.90
46898;DHT22;32646;50.958;6.258;2023-02-03T12:35:09;8.90;99.90
46898;DHT22;32646;50.958;6.258;2023-02-03T12:37:51;8.90;99.90
46898;DHT22;32646;50.958;6.258;2023-02-03T12:43:27;8.90;99.90
46898;DHT22;32646;50.958;6.258;2023-02-03T12:46:02;8.90;99.90
46898;DHT22;32646;50.958;6.258;2023-02-03T12:48:46;8.90;99.90
46898;DHT22;32646;50.958;6.258;2023-02-03T12:51:39;8.90;99.90
46898;DHT22;32646;50.958;6.258;2023-02-03T12:54:14;8.90;99.90
46898;DHT22;32646;50.958;6.258;2023-02-03T12:56:43;8.80;99.90
46898;DHT22;32646;50.958;6.258;2023-02-03T12:59:21;8.90;99.90
46898;DHT22;32646;50.958;6.258;2023-02-03T13:01:59;8.90;99.90
46898;DHT22;32646;50.958;6.258;2023-02-03T13:04:35;8.90;99.90
46898;DHT22;32646;50.958;6.258;2023-02-03T13:09:52;8.90;99.90
46898;DHT22;32646;50.958;6.258;2023-02-03T13:15:18;8.90;99.90
46898;DHT22;32646;50.958;6.258;2023-02-03T13:18:03;8.90;99.90
46898;DHT22;32646;50.958;6.258;2023-02-03T13:20:32;8.90;99.90
46898;DHT22;32646;50.958;6.258;2023-02-03T13:23:06;8.90;99.90
46898;DHT22;32646;50.958;6.258;2023-02-03T13:26:00;9.00;99.90
46898;DHT22;32646;50.958;6.258;2023-02-03T13:28:54;9.00;99.90
46898;DHT22;32646;50.958;6.258;2023-02-03T13:31:42;9.00;99.90
46898;DHT22;32646;50.958;6.258;2023-02-03T13:42:31;9.10;99.90
46898;DHT22;32646;50.958;6.258;2023-02-03T13:45:24;9.30;99.90
46898;DHT22;32646;50.958;6.258;2023-02-03T13:47:55;9.20;99.90
46898;DHT22;32646;50.958;6.258;2023-02-03T13:50:23;9.20;99.90
46898;DHT22;32646;50.958;6.258;2023-02-03T13:52:59;9.20;99.90
46898;DHT22;32646;50.958;6.258;2023-02-03T13:57:56;9.10;99.90
46898;DHT22;32646;50.958;6.258;2023-02-03T14:03:17;9.00;99.90
46898;DHT22;32646;50.958;6.258;2023-02-03T14:05:48;9.00;99.90
46898;DHT22;32646;50.958;6.258;2023-02-03T14:16:37;8.90;99.90
46898;DHT22;32646;50.958;6.258;2023-02-03T14:19:08;8.90;99.90
46898;DHT22;32646;50.958;6.258;2023-02-03T14:21:39;8.90;99.90
46898;DHT22;32646;50.958;6.258;2023-02-03T14:24:09;9.00;99.90
46898;DHT22;32646;50.958;6.258;2023-02-03T14:26:51;9.00;99.90
46898;DHT22;32646;50.958;6.258;2023-02-03T14:29:36;9.10;99.90
46898;DHT22;32646;50.958;6.258;2023-02-03T14:32:10;9.10;99.90
46898;DHT22;32646;50.958;6.258;2023-02-03T14:37:25;9.20;99.90
46898;DHT22;32646;50.958;6.258;2023-02-03T14:48:48;9.30;99.90
46898;DHT22;32646;50.958;6.258;2023-02-03T14:57:12;9.70;99.90
46898;DHT22;32646;50.958;6.258;2023-02-03T14:59:55;9.70;99.90
46898;DHT22;32646;50.958;6.258;2023-02-03T15:02:25;9.70;99.90
46898;DHT22;32646;50.958;6.258;2023-02-03T15:07:45;9.80;99.90
46898;DHT22;32646;50.958;6.258;2023-02-03T15:10:20;9.80;99.90
46898;DHT22;32646;50.958;6.258;2023-02-03T15:12:52;9.80;99.90
46898;DHT22;32646;50.958;6.258;2023-02-03T15:15:24;9.80;99.90
46898;DHT22;32646;50.958;6.258;2023-02-03T15:17:54;9.80;99.90
46898;DHT22;32646;50.958;6.258;2023-02-03T15:20:39;9.80;99.90
46898;DHT22;32646;50.958;6.258;2023-02-03T15:23:40;9.80;99.90
46898;DHT22;32646;50.958;6.258;2023-02-03T15:26:22;9.80;99.90
46898;DHT22;32646;50.958;6.258;2023-02-03T15:28:57;9.80;99.90
46898;DHT22;32646;50.958;6.258;2023-02-03T15:31:34;9.80;99.90
46898;DHT22;32646;50.958;6.258;2023-02-03T15:34:22;9.80;99.90
46898;DHT22;32646;50.958;6.258;2023-02-03T15:36:53;9.70;99.90
46898;DHT22;32646;50.958;6.258;2023-02-03T15:39:27;9.80;99.90
46898;DHT22;32646;50.958;6.258;2023-02-03T15:41:58;9.70;99.90
46898;DHT22;32646;50.958;6.258;2023-02-03T15:44:29;9.70;99.90
46898;DHT22;32646;50.958;6.258;2023-02-03T15:46:58;9.70;99.90
46898;DHT22;32646;50.958;6.258;2023-02-03T15:49:31;9.70;99.90
46898;DHT22;32646;50.958;6.258;2023-02-03T15:52:08;9.70;99.90
46898;DHT22;32646;50.958;6.258;2023-02-03T15:54:41;9.70;99.90
46898;DHT22;32646;50.958;6.258;2023-02-03T15:57:15;9.70;99.90
46898;DHT22;32646;50.958;6.258;2023-02-03T15:59:55;9.70;99.90
46898;DHT22;32646;50.958;6.258;2023-02-03T16:02:37;9.60;99.90
46898;DHT22;32646;50.958;6.258;2023-02-03T16:05:29;9.60;99.90
46898;DHT22;32646;50.958;6.258;2023-02-03T16:10:52;9.60;99.90
46898;DHT22;32646;50.958;6.258;2023-02-03T16:13:24;9.60;99.90
46898;DHT22;32646;50.958;6.258;2023-02-03T16:15:58;9.60;99.90
46898;DHT22;32646;50.958;6.258;2023-02-03T16:18:25;9.60;99.90
46898;DHT22;32646;50.958;6.258;2023-02-03T16:20:52;9.50;99.90
46898;DHT22;32646;50.958;6.258;2023-02-03T16:23:22;9.50;99.90
46898;DHT22;32646;50.958;6.258;2023-02-03T16:26:09;9.50;99.90
46898;DHT22;32646;50.958;6.258;2023-02-03T16:28:40;9.50;99.90
46898;DHT22;32646;50.958;6.258;2023-02-03T16:31:14;9.40;99.90
46898;DHT22;32646;50.958;6.258;2023-02-03T16:33:49;9.40;99.90
46898;DHT22;32646;50.958;6.258;2023-02-03T16:36:16;9.40;99.90
46898;DHT22;32646;50.958;6.258;2023-02-03T16:38:49;9.40;99.90
46898;DHT22;32646;50.958;6.258;2023-02-03T16:41:16;9.40;99.90
46898;DHT22;32646;50.958;6.258;2023-02-03T16:43:44;9.40;99.90
46898;DHT22;32646;50.958;6.258;2023-02-03T16:46:11;9.50;99.90
46898;DHT22;32646;50.958;6.258;2023-02-03T16:48:37;9.50;99.90
46898;DHT22;32646;50.958;6.258;2023-02-03T16:51:10;9.50;99.90
46898;DHT22;32646;50.958;6.258;2023-02-03T16:53:38;9.50;99.90
46898;DHT22;32646;50.958;6.258;2023-02-03T16:56:05;9.50;99.90
46898;DHT22;32646;50.958;6.258;2023-02-03T16:58:32;9.50;99.90
46898;DHT22;32646;50.958;6.258;2023-02-03T17:01:00;9.50;99.90
46898;DHT22;32646;50.958;6.258;2023-02-03T17:03:28;9.50;99.90
46898;DHT22;32646;50.958;6.258;2023-02-03T17:05:55;9.50;99.90
46898;DHT22;32646;50.958;6.258;2023-02-03T17:08:24;9.50;99.90
46898;DHT22;32646;50.958;6.258;2023-02-03T17:10:51;9.50;99.90
46898;DHT22;32646;50.958;6.258;2023-02-03T17:13:19;9.40;99.90
46898;DHT22;32646;50.958;6.258;2023-02-03T17:15:49;9.40;99.90
46898;DHT22;32646;50.958;6.258;2023-02-03T17:18:16;9.40;99.90
46898;DHT22;32646;50.958;6.258;2023-02-03T17:20:43;9.50;99.90
46898;DHT22;32646;50.958;6.258;2023-02-03T17:23:11;9.50;99.90
46898;DHT22;32646;50.958;6.258;2023-02-03T17:25:39;9.50;99.90
46898;DHT22;32646;50.958;6.258;2023-02-03T17:28:07;9.50;99.90
46898;DHT22;32646;50.958;6.258;2023-02-03T17:30:34;9.50;99.90
46898;DHT22;32646;50.958;6.258;2023-02-03T17:33:05;9.40;99.90
46898;DHT22;32646;50.958;6.258;2023-02-03T17:35:32;9.40;99.90
46898;DHT22;32646;50.958;6.258;2023-02-03T17:37:59;9.40;99.90
46898;DHT22;32646;50.958;6.258;2023-02-03T17:40:25;9.30;99.90
46898;DHT22;32646;50.958;6.258;2023-02-03T17:43:10;9.40;99.90
46898;DHT22;32646;50.958;6.258;2023-02-03T17:45:57;9.40;99.90
46898;DHT22;32646;50.958;6.258;2023-02-03T17:48:41;9.40;99.90
46898;DHT22;32646;50.958;6.258;2023-02-03T17:51:26;9.40;99.90
46898;DHT22;32646;50.958;6.258;2023-02-03T17:54:10;9.40;99.90
46898;DHT22;32646;50.958;6.258;2023-02-03T17:56:37;9.40;99.90
46898;DHT22;32646;50.958;6.258;2023-02-03T17:59:04;9.40;99.90
46898;DHT22;32646;50.958;6.258;2023-02-03T18:01:31;9.40;99.90
46898;DHT22;32646;50.958;6.258;2023-02-03T18:04:00;9.40;99.90
46898;DHT22;32646;50.958;6.258;2023-02-03T18:06:28;9.40;99.90
46898;DHT22;32646;50.958;6.258;2023-02-03T18:08:55;9.40;99.90
46898;DHT22;32646;50.958;6.258;2023-02-03T18:11:22;9.40;99.90
46898;DHT22;32646;50.958;6.258;2023-02-03T18:13:49;9.40;99.90
46898;DHT22;32646;50.958;6.258;2023-02-03T18:16:21;9.40;99.90
46898;DHT22;32646;50.958;6.258;2023-02-03T18:18:48;9.40;99.90